Time;durP1;ratioP1;P1;durP2;ratioP2;P2;SDS_P1;SDS_P2;PMS_P1;PMS_P2;Temp;Humidity;BMP_temperature;BMP_pressure;BME280_temperature;BME280_humidity;BME280_pressure;Samples;Min_cycle;Max_cycle;Signal;HPM_P1;HPM_P2
2020/12/01 00:01:11;;;;;;;10.53;8.73;;;;;;;;;;5053555;28;20402;-48
2020/12/01 00:03:38;;;;;;;12.80;8.20;;;;;;;;;;5053117;28;20446;-48
2020/12/01 00:06:05;;;;;;;13.50;7.93;;;;;;;;;;5053371;28;20198;-49
2020/12/01 00:08:31;;;;;;;9.75;7.05;;;;;;;;;;5053084;28;20191;-48
2020/12/01 00:10:57;;;;;;;9.43;6.80;;;;;;;;;;5053794;28;20434;-49
2020/12/01 00:13:23;;;;;;;12.70;8.10;;;;;;;;;;5061973;28;20443;-49
2020/12/01 00:15:49;;;;;;;12.80;7.67;;;;;;;;;;5053562;28;20469;-49
2020/12/01 00:18:15;;;;;;;11.40;8.17;;;;;;;;;;5053031;28;20591;-48
2020/12/01 00:20:42;;;;;;;10.63;8.10;;;;;;;;;;5053133;28;20408;-48
2020/12/01 00:23:08;;;;;;;13.35;8.05;;;;;;;;;;5052765;28;20415;-48
2020/12/01 00:25:34;;;;;;;10.93;7.73;;;;;;;;;;5052756;28;20178;-48
2020/12/01 00:28:00;;;;;;;12.67;7.97;;;;;;;;;;5052781;28;20455;-48
2020/12/01 00:30:26;;;;;;;15.30;8.70;;;;;;;;;;5052677;28;20409;-49
2020/12/01 00:32:53;;;;;;;11.43;8.32;;;;;;;;;;5052690;28;20413;-48
2020/12/01 00:35:20;;;;;;;11.18;8.68;;;;;;;;;;5052639;28;20225;-48
2020/12/01 00:37:46;;;;;;;9.90;7.47;;;;;;;;;;5052604;28;20201;-48
2020/12/01 00:40:13;;;;;;;11.95;8.82;;;;;;;;;;5052311;28;20166;-49
2020/12/01 00:42:39;;;;;;;10.38;7.57;;;;;;;;;;5052119;28;20232;-48
2020/12/01 00:45:06;;;;;;;11.15;8.35;;;;;;;;;;5052371;28;20198;-48
2020/12/01 00:47:32;;;;;;;12.35;9.55;;;;;;;;;;5052691;28;20202;-49
2020/12/01 00:49:58;;;;;;;10.97;8.07;;;;;;;;;;5052493;28;20167;-49
2020/12/01 00:52:24;;;;;;;13.47;8.20;;;;;;;;;;5052087;28;20397;-48
2020/12/01 00:54:50;;;;;;;12.93;7.90;;;;;;;;;;5052348;28;20460;-49
2020/12/01 00:57:16;;;;;;;13.53;8.60;;;;;;;;;;5052155;28;20197;-49
2020/12/01 00:59:42;;;;;;;13.27;8.97;;;;;;;;;;5052580;28;20405;-48
2020/12/01 01:02:08;;;;;;;11.60;7.70;;;;;;;;;;5051982;28;20400;-48
2020/12/01 01:04:34;;;;;;;12.32;8.90;;;;;;;;;;5052539;28;20258;-49
2020/12/01 01:07:01;;;;;;;11.05;6.90;;;;;;;;;;5052226;28;20225;-50
2020/12/01 01:09:27;;;;;;;7.72;6.47;;;;;;;;;;5052519;28;20190;-49
2020/12/01 01:11:53;;;;;;;10.43;7.90;;;;;;;;;;5052763;28;20540;-48
2020/12/01 01:14:19;;;;;;;10.52;7.15;;;;;;;;;;5052076;28;20393;-49
2020/12/01 01:16:45;;;;;;;9.83;7.00;;;;;;;;;;5052071;28;20556;-50
2020/12/01 01:19:35;;;;;;;9.80;7.35;;;;;;;;;;5051939;28;20393;-49
2020/12/01 01:22:01;;;;;;;9.07;7.22;;;;;;;;;;5050763;28;20167;-48
2020/12/01 01:24:27;;;;;;;12.27;7.57;;;;;;;;;;5051819;28;20189;-49
2020/12/01 01:26:54;;;;;;;7.90;6.80;;;;;;;;;;5051704;28;20413;-48
2020/12/01 01:29:21;;;;;;;8.90;7.15;;;;;;;;;;5051744;28;20744;-49
2020/12/01 01:31:47;;;;;;;10.88;7.60;;;;;;;;;;5052081;28;20191;-48
2020/12/01 01:34:13;;;;;;;10.40;7.10;;;;;;;;;;5051401;28;20638;-48
2020/12/01 01:36:39;;;;;;;8.80;7.25;;;;;;;;;;5051437;28;20456;-48
2020/12/01 01:39:06;;;;;;;11.70;8.13;;;;;;;;;;5051382;28;20176;-48
2020/12/01 01:41:33;;;;;;;11.68;7.90;;;;;;;;;;5070005;28;20967;-48
2020/12/01 01:43:59;;;;;;;11.48;8.23;;;;;;;;;;5071103;28;20169;-48
2020/12/01 01:46:28;;;;;;;14.73;8.93;;;;;;;;;;5071198;28;20604;-48
2020/12/01 01:48:54;;;;;;;11.07;8.73;;;;;;;;;;5070236;28;20443;-48
2020/12/01 01:51:20;;;;;;;13.10;9.47;;;;;;;;;;5071273;28;20174;-49
2020/12/01 01:53:48;;;;;;;13.68;10.23;;;;;;;;;;5070516;28;20428;-49
2020/12/01 01:56:17;;;;;;;17.23;10.32;;;;;;;;;;5070956;28;20225;-48
2020/12/01 01:58:45;;;;;;;19.73;11.90;;;;;;;;;;5070998;28;20181;-48
2020/12/01 02:01:16;;;;;;;19.98;13.07;;;;;;;;;;5070641;28;20204;-48
2020/12/01 02:03:42;;;;;;;21.83;13.05;;;;;;;;;;5070543;28;20166;-48
2020/12/01 02:06:27;;;;;;;25.03;13.90;;;;;;;;;;5070795;28;20177;-48
2020/12/01 02:08:57;;;;;;;20.23;12.88;;;;;;;;;;5068593;28;20397;-48
2020/12/01 02:11:24;;;;;;;22.80;13.07;;;;;;;;;;5050852;28;20175;-48
2020/12/01 02:14:13;;;;;;;23.67;14.32;;;;;;;;;;5050978;28;20197;-49
2020/12/01 02:16:43;;;;;;;22.48;13.93;;;;;;;;;;5048354;28;20227;-49
2020/12/01 02:19:12;;;;;;;23.17;13.27;;;;;;;;;;5050481;28;20175;-49
2020/12/01 02:21:39;;;;;;;21.55;13.27;;;;;;;;;;5049930;28;20181;-50
2020/12/01 02:24:07;;;;;;;23.73;13.38;;;;;;;;;;5050294;28;20179;-49
2020/12/01 02:26:33;;;;;;;22.30;12.23;;;;;;;;;;5050827;28;20218;-49
2020/12/01 02:29:09;;;;;;;15.27;10.85;;;;;;;;;;5050957;28;20163;-49
2020/12/01 02:31:35;;;;;;;15.65;10.75;;;;;;;;;;5050608;28;20162;-48
2020/12/01 02:34:05;;;;;;;13.60;9.17;;;;;;;;;;5050612;28;20170;-48
2020/12/01 02:36:31;;;;;;;14.40;9.23;;;;;;;;;;5050480;28;20492;-49
2020/12/01 02:38:57;;;;;;;13.68;9.18;;;;;;;;;;5050253;28;20221;-49
2020/12/01 02:41:23;;;;;;;13.07;9.88;;;;;;;;;;5050583;28;20170;-49
2020/12/01 02:43:49;;;;;;;9.03;8.10;;;;;;;;;;5050547;28;20171;-49
2020/12/01 02:46:15;;;;;;;15.73;8.80;;;;;;;;;;5050380;28;20514;-49
2020/12/01 02:48:41;;;;;;;9.30;8.10;;;;;;;;;;5066058;28;20920;-49
2020/12/01 02:51:07;;;;;;;9.80;7.80;;;;;;;;;;5060635;28;20179;-49
2020/12/01 02:53:33;;;;;;;10.70;8.03;;;;;;;;;;5050557;28;20433;-49
2020/12/01 02:55:59;;;;;;;11.93;8.60;;;;;;;;;;5050518;28;20830;-49
2020/12/01 02:58:25;;;;;;;10.97;9.20;;;;;;;;;;5050479;28;20496;-48
2020/12/01 03:00:51;;;;;;;14.55;8.10;;;;;;;;;;5050562;28;20401;-48
2020/12/01 03:03:17;;;;;;;11.43;9.27;;;;;;;;;;5050243;28;20167;-49
2020/12/01 03:05:43;;;;;;;12.47;10.27;;;;;;;;;;5051740;28;20926;-49
2020/12/01 03:08:08;;;;;;;13.23;9.10;;;;;;;;;;5053727;28;20445;-49
2020/12/01 03:10:34;;;;;;;12.90;8.80;;;;;;;;;;5054633;28;20428;-49
2020/12/01 03:13:00;;;;;;;11.93;8.93;;;;;;;;;;5054183;28;20409;-49
2020/12/01 03:15:26;;;;;;;12.33;8.70;;;;;;;;;;5054409;28;20449;-49
2020/12/01 03:17:53;;;;;;;13.07;9.63;;;;;;;;;;5054138;28;20909;-49
2020/12/01 03:20:19;;;;;;;13.32;9.30;;;;;;;;;;5054144;28;20401;-49
2020/12/01 03:22:44;;;;;;;16.53;9.67;;;;;;;;;;5053950;28;20171;-49
2020/12/01 03:25:11;;;;;;;15.87;10.20;;;;;;;;;;5054281;28;20405;-49
2020/12/01 03:27:37;;;;;;;13.90;10.68;;;;;;;;;;5054029;28;20921;-49
2020/12/01 03:30:04;;;;;;;14.32;10.07;;;;;;;;;;5053974;28;20663;-49
2020/12/01 03:32:30;;;;;;;14.52;10.02;;;;;;;;;;5053711;28;20201;-49
2020/12/01 03:34:56;;;;;;;14.20;9.83;;;;;;;;;;5053825;28;20241;-49
2020/12/01 03:37:22;;;;;;;15.98;9.80;;;;;;;;;;5053881;28;20423;-49
2020/12/01 03:39:48;;;;;;;15.97;10.17;;;;;;;;;;5053364;28;20179;-49
2020/12/01 03:42:14;;;;;;;20.10;11.23;;;;;;;;;;5053654;28;20890;-49
2020/12/01 03:44:40;;;;;;;15.80;9.13;;;;;;;;;;5053612;28;20474;-49
2020/12/01 03:47:06;;;;;;;13.77;9.60;;;;;;;;;;5053639;28;20500;-49
2020/12/01 03:49:32;;;;;;;14.40;10.97;;;;;;;;;;5053628;28;20397;-49
2020/12/01 03:51:58;;;;;;;15.75;9.63;;;;;;;;;;5053548;28;20454;-49
2020/12/01 03:54:24;;;;;;;12.15;8.75;;;;;;;;;;5053418;28;20178;-49
2020/12/01 03:56:50;;;;;;;14.55;9.68;;;;;;;;;;5053550;28;20187;-49
2020/12/01 03:59:16;;;;;;;16.07;9.90;;;;;;;;;;5053474;28;20540;-49
2020/12/01 04:01:42;;;;;;;13.67;9.80;;;;;;;;;;5053319;28;20394;-49
2020/12/01 04:04:08;;;;;;;11.32;9.02;;;;;;;;;;5053257;28;21062;-49
2020/12/01 04:06:34;;;;;;;17.07;10.40;;;;;;;;;;5053225;28;20187;-49
2020/12/01 04:09:02;;;;;;;15.57;10.20;;;;;;;;;;5052884;28;20433;-48
2020/12/01 04:11:28;;;;;;;16.15;8.95;;;;;;;;;;5053195;28;20433;-49
2020/12/01 04:13:54;;;;;;;19.20;9.83;;;;;;;;;;5053080;28;20202;-50
2020/12/01 04:16:20;;;;;;;12.77;9.50;;;;;;;;;;5052854;28;20494;-49
2020/12/01 04:18:46;;;;;;;14.60;10.20;;;;;;;;;;5052555;28;20432;-49
2020/12/01 04:21:12;;;;;;;16.10;9.53;;;;;;;;;;5053004;28;20803;-50
2020/12/01 04:23:38;;;;;;;15.27;10.90;;;;;;;;;;5052909;28;20433;-49
2020/12/01 04:26:04;;;;;;;14.30;10.40;;;;;;;;;;5052893;28;20417;-49
2020/12/01 04:28:30;;;;;;;17.60;10.53;;;;;;;;;;5052891;28;20429;-49
2020/12/01 04:30:56;;;;;;;19.20;10.33;;;;;;;;;;5052681;28;20410;-48
2020/12/01 04:33:22;;;;;;;18.60;11.90;;;;;;;;;;5052706;28;20446;-49
2020/12/01 04:35:48;;;;;;;18.00;11.03;;;;;;;;;;5052969;28;20461;-49
2020/12/01 04:38:14;;;;;;;16.97;10.70;;;;;;;;;;5052388;28;20979;-49
2020/12/01 04:40:40;;;;;;;16.93;10.10;;;;;;;;;;5052844;28;20459;-49
2020/12/01 04:43:15;;;;;;;15.98;10.40;;;;;;;;;;5052440;28;20981;-49
2020/12/01 04:45:41;;;;;;;19.98;12.18;;;;;;;;;;5052549;28;20186;-49
2020/12/01 04:48:22;;;;;;;20.40;12.18;;;;;;;;;;5052463;28;20672;-49
2020/12/01 04:50:53;;;;;;;19.20;11.70;;;;;;;;;;5052621;28;20171;-50
2020/12/01 04:53:37;;;;;;;20.80;12.57;;;;;;;;;;5052351;28;20654;-49
2020/12/01 04:56:03;;;;;;;19.15;13.02;;;;;;;;;;5052461;28;20248;-50
2020/12/01 04:58:36;;;;;;;19.57;12.07;;;;;;;;;;5052330;28;20183;-50
2020/12/01 05:01:02;;;;;;;17.77;10.98;;;;;;;;;;5052328;28;20979;-49
2020/12/01 05:03:35;;;;;;;18.50;12.60;;;;;;;;;;5052197;28;20166;-50
2020/12/01 05:06:33;;;;;;;18.88;11.48;;;;;;;;;;5052473;28;20258;-49
2020/12/01 05:09:02;;;;;;;16.08;11.60;;;;;;;;;;5052893;28;20187;-49
2020/12/01 05:11:44;;;;;;;18.52;12.15;;;;;;;;;;5065392;28;20174;-49
2020/12/01 05:14:16;;;;;;;18.27;11.77;;;;;;;;;;5071920;28;20653;-49
2020/12/01 05:17:01;;;;;;;21.48;12.75;;;;;;;;;;5071936;28;20798;-49
2020/12/01 05:19:32;;;;;;;23.95;12.20;;;;;;;;;;5072322;28;20711;-50
2020/12/01 05:21:58;;;;;;;20.42;12.25;;;;;;;;;;5071925;28;20173;-49
2020/12/01 05:24:24;;;;;;;19.97;11.40;;;;;;;;;;5071774;28;20167;-49
2020/12/01 05:26:50;;;;;;;21.93;11.77;;;;;;;;;;5071839;28;20416;-49
2020/12/01 05:29:23;;;;;;;18.33;11.80;;;;;;;;;;5070622;28;20918;-49
2020/12/01 05:31:49;;;;;;;19.83;12.45;;;;;;;;;;5071710;28;20403;-49
2020/12/01 05:34:20;;;;;;;19.80;11.67;;;;;;;;;;5071403;28;20174;-49
2020/12/01 05:36:46;;;;;;;22.08;12.40;;;;;;;;;;5068687;28;20482;-49
2020/12/01 05:39:20;;;;;;;18.65;12.45;;;;;;;;;;5051484;28;20175;-49
2020/12/01 05:42:06;;;;;;;23.65;13.20;;;;;;;;;;5051507;28;20201;-49
2020/12/01 05:44:33;;;;;;;27.38;13.80;;;;;;;;;;5051311;28;20179;-49
2020/12/01 05:47:06;;;;;;;21.23;13.30;;;;;;;;;;5051477;28;20189;-49
2020/12/01 05:49:38;;;;;;;22.58;13.30;;;;;;;;;;5051349;28;20166;-49
2020/12/01 05:52:17;;;;;;;21.55;12.93;;;;;;;;;;5051149;28;20170;-49
2020/12/01 05:54:44;;;;;;;27.20;13.35;;;;;;;;;;5051281;28;20167;-49
2020/12/01 05:57:21;;;;;;;23.15;14.27;;;;;;;;;;5051327;28;20187;-49
2020/12/01 05:59:53;;;;;;;23.05;14.70;;;;;;;;;;5051312;28;20166;-49
2020/12/01 06:02:22;;;;;;;22.45;14.07;;;;;;;;;;5050941;28;20177;-49
2020/12/01 06:04:47;;;;;;;21.00;14.10;;;;;;;;;;5051128;28;20536;-49
2020/12/01 06:07:17;;;;;;;28.30;14.87;;;;;;;;;;5051410;28;20194;-49
2020/12/01 06:10:01;;;;;;;22.88;13.45;;;;;;;;;;5051206;28;20460;-49
2020/12/01 06:12:33;;;;;;;24.50;14.85;;;;;;;;;;5050703;28;20638;-49
2020/12/01 06:15:14;;;;;;;29.38;14.82;;;;;;;;;;5050895;28;20184;-49
2020/12/01 06:17:52;;;;;;;26.95;14.50;;;;;;;;;;5050814;28;20195;-49
2020/12/01 06:20:29;;;;;;;31.48;15.63;;;;;;;;;;5051032;28;20204;-50
2020/12/01 06:22:55;;;;;;;32.35;15.85;;;;;;;;;;5050638;28;20171;-49
2020/12/01 06:25:33;;;;;;;30.67;15.20;;;;;;;;;;5050858;28;20171;-49
2020/12/01 06:28:19;;;;;;;26.02;16.08;;;;;;;;;;5050709;28;20421;-49
2020/12/01 06:31:01;;;;;;;27.83;15.38;;;;;;;;;;5050797;28;20181;-49
2020/12/01 06:33:27;;;;;;;29.75;15.95;;;;;;;;;;5050573;28;20203;-49
2020/12/01 06:35:53;;;;;;;33.30;16.50;;;;;;;;;;5050689;28;20191;-49
2020/12/01 06:38:40;;;;;;;31.10;16.13;;;;;;;;;;5050762;28;21164;-49
2020/12/01 06:41:15;;;;;;;33.58;17.33;;;;;;;;;;5050304;28;20397;-49
2020/12/01 06:43:42;;;;;;;32.20;17.40;;;;;;;;;;5050334;28;20633;-49
2020/12/01 06:46:37;;;;;;;28.52;15.27;;;;;;;;;;5050597;28;20180;-49
2020/12/01 06:49:05;;;;;;;25.90;16.02;;;;;;;;;;5041475;28;20659;-49
2020/12/01 06:51:31;;;;;;;48.05;17.95;;;;;;;;;;5050565;28;20175;-49
2020/12/01 06:54:05;;;;;;;32.10;16.02;;;;;;;;;;5050381;28;20673;-49
2020/12/01 06:56:30;;;;;;;28.88;15.75;;;;;;;;;;5050530;28;20260;-48
2020/12/01 06:59:04;;;;;;;37.07;15.97;;;;;;;;;;5050391;28;20202;-50
2020/12/01 07:01:31;;;;;;;33.53;17.42;;;;;;;;;;5050517;28;20488;-49
2020/12/01 07:04:03;;;;;;;40.13;18.92;;;;;;;;;;5050302;28;20163;-50
2020/12/01 07:06:29;;;;;;;37.22;17.00;;;;;;;;;;5050208;28;20310;-49
2020/12/01 07:09:27;;;;;;;41.23;18.50;;;;;;;;;;5050508;28;20242;-49
2020/12/01 07:11:53;;;;;;;41.53;19.60;;;;;;;;;;5027844;28;20436;-49
2020/12/01 07:14:37;;;;;;;45.37;19.70;;;;;;;;;;5060285;28;20665;-49
2020/12/01 07:17:14;;;;;;;48.95;21.33;;;;;;;;;;5049026;28;20478;-49
2020/12/01 07:19:44;;;;;;;44.35;20.63;;;;;;;;;;5049612;28;20174;-49
2020/12/01 07:22:21;;;;;;;45.55;20.60;;;;;;;;;;5050141;28;20677;-49
2020/12/01 07:24:52;;;;;;;47.88;20.48;;;;;;;;;;5049549;28;20201;-48
2020/12/01 07:27:26;;;;;;;47.70;19.55;;;;;;;;;;5049678;28;20186;-48
2020/12/01 07:29:54;;;;;;;41.72;20.25;;;;;;;;;;5049432;28;20163;-50
2020/12/01 07:32:27;;;;;;;51.20;20.23;;;;;;;;;;5049415;28;20170;-48
2020/12/01 07:35:04;;;;;;;54.75;21.45;;;;;;;;;;5051776;28;20273;-48
2020/12/01 07:37:30;;;;;;;53.78;20.05;;;;;;;;;;5049502;28;20209;-49
2020/12/01 07:39:59;;;;;;;48.57;20.37;;;;;;;;;;5049434;28;20171;-49
2020/12/01 07:42:27;;;;;;;45.55;21.55;;;;;;;;;;5049122;28;20451;-48
2020/12/01 07:44:56;;;;;;;51.10;22.05;;;;;;;;;;5049355;28;20607;-49
2020/12/01 07:47:24;;;;;;;56.63;22.08;;;;;;;;;;5049636;28;20286;-48
2020/12/01 07:49:58;;;;;;;56.55;20.25;;;;;;;;;;5050040;28;20770;-48
2020/12/01 07:52:27;;;;;;;50.50;19.52;;;;;;;;;;5050066;28;20171;-48
2020/12/01 07:55:01;;;;;;;64.87;23.67;;;;;;;;;;5053756;28;20176;-48
2020/12/01 07:57:27;;;;;;;58.65;20.50;;;;;;;;;;5053330;28;20421;-49
2020/12/01 07:59:53;;;;;;;54.73;21.80;;;;;;;;;;5053526;28;20174;-50
2020/12/01 08:02:20;;;;;;;68.25;24.48;;;;;;;;;;5053196;28;21078;-48
2020/12/01 08:04:46;;;;;;;83.03;24.42;;;;;;;;;;5051722;28;20168;-48
2020/12/01 08:07:16;;;;;;;83.23;23.60;;;;;;;;;;5051921;28;20198;-48
2020/12/01 08:09:43;;;;;;;66.35;21.95;;;;;;;;;;5065754;28;20466;-49
2020/12/01 08:12:12;;;;;;;73.07;24.25;;;;;;;;;;5073097;28;20178;-49
2020/12/01 08:14:38;;;;;;;72.40;22.83;;;;;;;;;;5073210;28;20174;-49
2020/12/01 08:17:13;;;;;;;60.42;22.80;;;;;;;;;;5073826;28;20303;-48
2020/12/01 08:19:40;;;;;;;97.75;25.88;;;;;;;;;;5073096;28;20177;-48
2020/12/01 08:22:08;;;;;;;70.47;23.17;;;;;;;;;;5072902;28;20171;-47
2020/12/01 08:24:37;;;;;;;77.05;24.27;;;;;;;;;;5073032;28;20166;-48
2020/12/01 08:27:17;;;;;;;71.97;24.58;;;;;;;;;;5072939;28;20196;-50
2020/12/01 08:29:43;;;;;;;71.30;22.77;;;;;;;;;;5072946;28;20249;-49
2020/12/01 08:32:12;;;;;;;68.15;24.80;;;;;;;;;;5072749;28;20195;-49
2020/12/01 08:34:51;;;;;;;90.63;27.55;;;;;;;;;;5072684;28;20179;-49
2020/12/01 08:37:23;;;;;;;92.65;27.65;;;;;;;;;;5053194;28;20285;-48
2020/12/01 08:39:59;;;;;;;71.97;22.92;;;;;;;;;;5052728;28;20623;-48
2020/12/01 08:42:31;;;;;;;72.28;27.65;;;;;;;;;;5052486;28;20173;-49
2020/12/01 08:45:04;;;;;;;78.55;28.48;;;;;;;;;;5052585;28;20241;-47
2020/12/01 08:47:31;;;;;;;84.50;27.55;;;;;;;;;;5052910;28;20187;-48
2020/12/01 08:49:57;;;;;;;115.30;27.98;;;;;;;;;;5052539;28;20186;-47
2020/12/01 08:52:25;;;;;;;80.70;25.57;;;;;;;;;;5052395;28;20635;-48
2020/12/01 08:54:53;;;;;;;63.67;24.70;;;;;;;;;;5052602;28;20402;-48
2020/12/01 08:57:23;;;;;;;71.03;24.30;;;;;;;;;;5052434;28;20188;-48
2020/12/01 08:59:54;;;;;;;73.73;25.10;;;;;;;;;;5052503;28;20179;-48
2020/12/01 09:02:20;;;;;;;68.82;23.40;;;;;;;;;;5052378;28;20524;-48
2020/12/01 09:04:46;;;;;;;77.35;24.40;;;;;;;;;;5052519;28;20265;-51
2020/12/01 09:07:26;;;;;;;78.40;26.23;;;;;;;;;;5052370;28;20192;-50
2020/12/01 09:09:54;;;;;;;86.60;27.87;;;;;;;;;;5052471;28;20177;-48
2020/12/01 09:12:30;;;;;;;76.47;23.83;;;;;;;;;;5051887;28;20401;-48
2020/12/01 09:15:04;;;;;;;76.65;26.25;;;;;;;;;;5052206;28;20173;-48
2020/12/01 09:17:47;;;;;;;73.63;25.20;;;;;;;;;;5052113;28;20204;-48
2020/12/01 09:20:23;;;;;;;83.23;25.97;;;;;;;;;;5052197;28;20392;-52
2020/12/01 09:22:49;;;;;;;78.85;25.90;;;;;;;;;;5057926;28;20937;-48
2020/12/01 09:25:23;;;;;;;91.37;28.67;;;;;;;;;;5071614;28;20179;-50
2020/12/01 09:27:50;;;;;;;135.77;28.25;;;;;;;;;;5071611;28;20497;-48
2020/12/01 09:30:36;;;;;;;83.70;26.60;;;;;;;;;;5071727;28;20639;-48
2020/12/01 09:33:07;;;;;;;87.18;26.50;;;;;;;;;;5071246;28;20549;-48
2020/12/01 09:35:33;;;;;;;93.37;27.43;;;;;;;;;;5059758;28;20203;-48
2020/12/01 09:37:59;;;;;;;74.35;24.40;;;;;;;;;;5051427;28;20425;-48
2020/12/01 09:40:26;;;;;;;96.00;28.07;;;;;;;;;;5051532;28;20168;-49
2020/12/01 09:42:56;;;;;;;109.85;26.90;;;;;;;;;;5051325;28;20406;-48
2020/12/01 09:45:27;;;;;;;81.75;26.15;;;;;;;;;;5051367;28;20206;-48
2020/12/01 09:47:59;;;;;;;67.43;25.10;;;;;;;;;;5051719;28;20200;-48
2020/12/01 09:50:29;;;;;;;80.43;26.07;;;;;;;;;;5051276;28;20428;-48
2020/12/01 09:55:45;;;;;;;67.40;26.38;;;;;;;;;;5051230;28;20306;-49
2020/12/01 10:09:16;;;;;;;92.40;23.05;;;;;;;;;;5071066;28;20187;-49
2020/12/01 10:35:50;;;;;;;39.53;16.87;;;;;;;;;;5051084;28;20917;-48
2020/12/01 10:38:16;;;;;;;29.47;15.47;;;;;;;;;;5050610;28;20428;-48
2020/12/01 10:40:42;;;;;;;31.53;14.83;;;;;;;;;;5050547;28;21201;-48
2020/12/01 10:43:08;;;;;;;31.50;13.60;;;;;;;;;;5050335;28;20536;-47
2020/12/01 10:45:34;;;;;;;27.67;12.90;;;;;;;;;;5061642;28;20434;-50
2020/12/01 10:48:00;;;;;;;44.97;13.00;;;;;;;;;;5070400;28;20998;-48
2020/12/01 10:50:29;;;;;;;22.43;13.00;;;;;;;;;;5070582;28;20397;-48
2020/12/01 10:52:55;;;;;;;23.77;11.87;;;;;;;;;;5070245;28;20413;-50
2020/12/01 10:55:23;;;;;;;25.30;12.30;;;;;;;;;;5070527;28;20879;-50
2020/12/01 10:57:58;;;;;;;16.60;10.37;;;;;;;;;;5070377;28;20816;-50
2020/12/01 11:00:25;;;;;;;23.37;11.50;;;;;;;;;;5070529;28;20405;-48
2020/12/01 11:02:52;;;;;;;21.50;9.97;;;;;;;;;;5062906;28;20480;-48
2020/12/01 11:05:20;;;;;;;16.60;10.03;;;;;;;;;;5050725;28;20973;-48
2020/12/01 11:07:46;;;;;;;14.03;9.17;;;;;;;;;;5051019;28;20939;-49
2020/12/01 11:10:12;;;;;;;14.40;9.87;;;;;;;;;;5050497;28;20411;-48
2020/12/01 11:12:38;;;;;;;18.67;10.03;;;;;;;;;;5050269;28;20407;-48
2020/12/01 11:15:04;;;;;;;20.00;9.90;;;;;;;;;;5050334;28;20452;-48
2020/12/01 11:17:30;;;;;;;20.60;11.30;;;;;;;;;;5050481;28;20434;-48
2020/12/01 11:19:56;;;;;;;17.03;9.47;;;;;;;;;;5050920;28;20408;-48
2020/12/01 11:22:22;;;;;;;22.07;12.07;;;;;;;;;;5050128;28;20404;-48
2020/12/01 11:24:48;;;;;;;19.37;11.87;;;;;;;;;;5050150;28;20413;-49
2020/12/01 11:27:14;;;;;;;22.50;10.97;;;;;;;;;;5052248;28;20542;-48
2020/12/01 11:29:40;;;;;;;20.10;10.80;;;;;;;;;;5054025;28;20774;-49
2020/12/01 11:32:06;;;;;;;15.53;9.27;;;;;;;;;;5053890;28;20400;-49
2020/12/01 11:34:32;;;;;;;17.23;10.70;;;;;;;;;;5053696;28;20434;-49
2020/12/01 11:36:58;;;;;;;21.30;10.67;;;;;;;;;;5053726;28;20462;-50
2020/12/01 11:39:25;;;;;;;14.07;9.53;;;;;;;;;;5053984;28;20402;-49
2020/12/01 11:41:51;;;;;;;21.50;10.63;;;;;;;;;;5053704;28;20561;-48
2020/12/01 11:44:17;;;;;;;16.13;9.70;;;;;;;;;;5052897;28;20761;-48
2020/12/01 11:46:44;;;;;;;15.13;10.90;;;;;;;;;;5052085;28;20433;-49
2020/12/01 11:49:10;;;;;;;17.17;9.77;;;;;;;;;;5052810;28;20510;-48
2020/12/01 11:51:37;;;;;;;17.13;10.77;;;;;;;;;;5052784;28;20474;-49
2020/12/01 11:54:04;;;;;;;16.10;9.67;;;;;;;;;;5053541;28;20430;-49
2020/12/01 11:56:30;;;;;;;16.20;9.70;;;;;;;;;;5053442;28;20454;-48
2020/12/01 11:58:56;;;;;;;13.10;9.53;;;;;;;;;;5053562;28;20499;-49
2020/12/01 12:01:21;;;;;;;22.43;10.27;;;;;;;;;;5053364;28;20404;-50
2020/12/01 12:03:47;;;;;;;20.13;10.20;;;;;;;;;;5052660;28;20485;-48
2020/12/01 12:06:13;;;;;;;14.93;9.90;;;;;;;;;;5052141;28;20961;-48
2020/12/01 12:08:40;;;;;;;34.10;13.10;;;;;;;;;;5053311;28;20404;-48
2020/12/01 12:11:06;;;;;;;61.97;13.07;;;;;;;;;;5056998;28;20423;-49
2020/12/01 12:13:32;;;;;;;123.57;16.40;;;;;;;;;;5072963;28;20411;-49
2020/12/01 12:15:58;;;;;;;20.23;11.03;;;;;;;;;;5073213;28;20797;-50
2020/12/01 12:18:24;;;;;;;29.53;12.80;;;;;;;;;;5073111;28;20431;-48
2020/12/01 12:20:50;;;;;;;17.97;11.90;;;;;;;;;;5073172;28;20399;-48
2020/12/01 12:23:16;;;;;;;22.80;11.30;;;;;;;;;;5072940;28;20408;-48
2020/12/01 12:25:43;;;;;;;17.47;11.80;;;;;;;;;;5073201;28;20404;-48
2020/12/01 12:28:09;;;;;;;19.23;11.43;;;;;;;;;;5072756;28;20416;-49
2020/12/01 12:30:35;;;;;;;16.97;11.57;;;;;;;;;;5073004;28;20404;-50
2020/12/01 12:33:01;;;;;;;19.67;12.43;;;;;;;;;;5062955;28;20903;-50
2020/12/01 12:35:27;;;;;;;21.30;12.00;;;;;;;;;;5052839;28;20452;-48
2020/12/01 12:37:53;;;;;;;17.50;11.57;;;;;;;;;;5052461;28;20424;-48
2020/12/01 12:40:19;;;;;;;18.20;11.50;;;;;;;;;;5052590;28;20950;-48
2020/12/01 12:42:45;;;;;;;27.33;12.33;;;;;;;;;;5052693;28;20404;-48
2020/12/01 12:45:11;;;;;;;26.60;10.60;;;;;;;;;;5052737;28;20440;-48
2020/12/01 12:47:37;;;;;;;134.07;18.87;;;;;;;;;;5061778;28;20468;-48
2020/12/01 12:50:04;;;;;;;18.10;10.40;;;;;;;;;;5072362;28;20439;-48
2020/12/01 12:52:30;;;;;;;50.20;12.73;;;;;;;;;;5072439;28;20404;-49
2020/12/01 12:54:56;;;;;;;73.10;13.17;;;;;;;;;;5072422;28;20744;-48
2020/12/01 12:57:22;;;;;;;101.03;16.50;;;;;;;;;;5072402;28;20432;-49
2020/12/01 12:59:48;;;;;;;18.57;10.60;;;;;;;;;;5072415;28;20406;-50
2020/12/01 13:02:14;;;;;;;35.00;11.97;;;;;;;;;;5066145;28;20423;-48
2020/12/01 13:04:40;;;;;;;21.27;13.20;;;;;;;;;;5052338;28;20407;-48
2020/12/01 13:07:07;;;;;;;23.67;12.33;;;;;;;;;;5052126;28;20424;-49
2020/12/01 13:09:33;;;;;;;24.67;14.10;;;;;;;;;;5052236;28;20442;-49
2020/12/01 13:11:59;;;;;;;20.10;13.13;;;;;;;;;;5051848;28;20508;-48
2020/12/01 13:14:25;;;;;;;17.47;11.83;;;;;;;;;;5052076;28;20496;-49
2020/12/01 13:16:52;;;;;;;16.30;11.50;;;;;;;;;;5051817;28;20981;-48
2020/12/01 13:19:19;;;;;;;17.90;11.90;;;;;;;;;;5051998;28;21072;-49
2020/12/01 13:21:51;;;;;;;22.50;12.73;;;;;;;;;;5056644;28;20404;-48
2020/12/01 13:24:17;;;;;;;18.67;13.03;;;;;;;;;;5067240;28;20401;-48
2020/12/01 13:26:43;;;;;;;15.97;11.17;;;;;;;;;;5071592;28;20423;-48
2020/12/01 13:29:09;;;;;;;20.20;13.13;;;;;;;;;;5071904;28;20415;-48
2020/12/01 13:31:35;;;;;;;21.33;12.93;;;;;;;;;;5069701;28;20428;-49
2020/12/01 13:34:01;;;;;;;16.67;11.80;;;;;;;;;;5051594;28;20417;-49
2020/12/01 13:36:28;;;;;;;28.77;15.30;;;;;;;;;;5051508;28;20952;-50
2020/12/01 13:38:54;;;;;;;18.77;12.20;;;;;;;;;;5051398;28;20426;-48
2020/12/01 13:41:20;;;;;;;21.47;13.10;;;;;;;;;;5051641;28;20920;-48
2020/12/01 13:43:47;;;;;;;22.33;12.70;;;;;;;;;;5051338;28;20786;-48
2020/12/01 13:46:15;;;;;;;23.30;13.33;;;;;;;;;;5051404;28;20431;-48
2020/12/01 13:48:41;;;;;;;14.00;10.90;;;;;;;;;;5051340;28;20411;-49
2020/12/01 13:51:07;;;;;;;17.33;11.70;;;;;;;;;;5050482;28;20408;-49
2020/12/01 13:53:33;;;;;;;15.13;10.73;;;;;;;;;;5051131;28;20459;-49
2020/12/01 13:55:59;;;;;;;20.20;11.73;;;;;;;;;;5051196;28;20464;-48
2020/12/01 13:58:25;;;;;;;18.70;12.30;;;;;;;;;;5051318;28;20951;-49
2020/12/01 14:00:51;;;;;;;15.67;11.90;;;;;;;;;;5051138;28;20408;-50
2020/12/01 14:03:17;;;;;;;15.40;11.50;;;;;;;;;;5050905;28;20443;-50
2020/12/01 14:05:43;;;;;;;19.70;13.57;;;;;;;;;;5051167;28;20404;-50
2020/12/01 14:08:09;;;;;;;17.03;11.63;;;;;;;;;;5051237;28;20481;-49
2020/12/01 14:10:35;;;;;;;15.57;10.87;;;;;;;;;;5051299;28;20412;-48
2020/12/01 14:13:01;;;;;;;18.03;12.07;;;;;;;;;;5051072;28;20420;-48
2020/12/01 14:15:30;;;;;;;15.57;11.00;;;;;;;;;;5051313;28;20458;-50
2020/12/01 14:17:56;;;;;;;19.97;11.23;;;;;;;;;;5051440;28;20417;-49
2020/12/01 14:20:22;;;;;;;16.97;11.43;;;;;;;;;;5050980;28;20409;-49
2020/12/01 14:22:48;;;;;;;12.17;9.97;;;;;;;;;;5050556;28;20488;-49
2020/12/01 14:25:15;;;;;;;17.30;11.10;;;;;;;;;;5050942;28;20499;-49
2020/12/01 14:27:41;;;;;;;15.53;10.53;;;;;;;;;;5051086;28;20421;-48
2020/12/01 14:30:12;;;;;;;17.00;10.90;;;;;;;;;;5050825;28;20495;-48
2020/12/01 14:32:38;;;;;;;15.10;10.70;;;;;;;;;;5049958;28;20406;-47
2020/12/01 14:35:04;;;;;;;15.27;10.30;;;;;;;;;;5070235;28;20412;-49
2020/12/01 14:37:30;;;;;;;16.33;10.37;;;;;;;;;;5070622;28;20428;-50
2020/12/01 14:39:56;;;;;;;14.83;10.50;;;;;;;;;;5070578;28;20813;-50
2020/12/01 14:42:23;;;;;;;15.17;9.90;;;;;;;;;;5070478;28;20486;-49
2020/12/01 14:44:49;;;;;;;13.50;9.00;;;;;;;;;;5070436;28;20965;-48
2020/12/01 14:47:34;;;;;;;13.07;9.20;;;;;;;;;;5070484;28;20431;-49
2020/12/01 14:50:18;;;;;;;14.90;9.83;;;;;;;;;;5070393;28;20399;-48
2020/12/01 14:52:47;;;;;;;13.47;8.63;;;;;;;;;;5070756;28;20409;-50
2020/12/01 14:55:18;;;;;;;13.47;9.70;;;;;;;;;;5070351;28;20481;-49
2020/12/01 14:58:03;;;;;;;12.53;9.77;;;;;;;;;;5070522;28;20472;-48
2020/12/01 15:00:31;;;;;;;12.50;9.20;;;;;;;;;;5070489;28;20492;-50
2020/12/01 15:03:16;;;;;;;11.50;8.70;;;;;;;;;;5072240;28;20446;-50
2020/12/01 15:05:45;;;;;;;9.17;7.57;;;;;;;;;;5074546;28;20440;-48
2020/12/01 15:08:24;;;;;;;9.23;8.17;;;;;;;;;;5074317;28;20422;-48